Terminal Aerodrome Forecast
Issued by NWS Sioux Falls, SD

Home | Current Version | Previous Version | Text Only | Print | Product List | Glossary Off
Versions: 1 2 3 4 5 6 7 8 9 10 11 12 13

000
FTUS43 KFSD 251555 AAC
TAFFSD
TAF AMD
KFSD 251555Z 2516/2612 08013KT P6SM SCT018 BKN035
     FM252000 07013KT P6SM BKN035
     FM260100 09007KT P6SM BKN035=

USA.gov is the U.S. government's official web portal to all federal, state and local government web resources and services.